sensor_id;sensor_type;location;lat;lon;timestamp;P1;durP1;ratioP1;P2;durP2;ratioP2
13868;SDS011;7004;48.206;16.402;2023-09-07T00:01:59;11.23;;;7.43;;
13868;SDS011;7004;48.206;16.402;2023-09-07T00:04:25;11.50;;;7.20;;
13868;SDS011;7004;48.206;16.402;2023-09-07T00:06:51;12.17;;;7.67;;
13868;SDS011;7004;48.206;16.402;2023-09-07T00:09:19;12.73;;;7.47;;
13868;SDS011;7004;48.206;16.402;2023-09-07T00:11:47;9.13;;;6.90;;
13868;SDS011;7004;48.206;16.402;2023-09-07T00:14:14;9.00;;;7.50;;
13868;SDS011;7004;48.206;16.402;2023-09-07T00:16:40;9.00;;;7.60;;
13868;SDS011;7004;48.206;16.402;2023-09-07T00:19:08;11.73;;;7.50;;
13868;SDS011;7004;48.206;16.402;2023-09-07T00:21:35;10.60;;;6.90;;
13868;SDS011;7004;48.206;16.402;2023-09-07T00:24:02;9.67;;;6.30;;
13868;SDS011;7004;48.206;16.402;2023-09-07T00:26:31;17.60;;;6.93;;
13868;SDS011;7004;48.206;16.402;2023-09-07T00:28:59;12.73;;;6.97;;
13868;SDS011;7004;48.206;16.402;2023-09-07T00:31:26;12.60;;;7.20;;
13868;SDS011;7004;48.206;16.402;2023-09-07T00:33:52;12.73;;;7.07;;
13868;SDS011;7004;48.206;16.402;2023-09-07T00:36:18;10.33;;;6.90;;
13868;SDS011;7004;48.206;16.402;2023-09-07T00:38:44;12.63;;;7.77;;
13868;SDS011;7004;48.206;16.402;2023-09-07T00:41:12;11.40;;;7.57;;
13868;SDS011;7004;48.206;16.402;2023-09-07T00:43:39;10.63;;;7.27;;
13868;SDS011;7004;48.206;16.402;2023-09-07T00:46:07;10.20;;;7.50;;
13868;SDS011;7004;48.206;16.402;2023-09-07T00:48:34;13.17;;;7.77;;
13868;SDS011;7004;48.206;16.402;2023-09-07T00:51:02;16.07;;;7.33;;
13868;SDS011;7004;48.206;16.402;2023-09-07T00:53:29;11.57;;;7.67;;
13868;SDS011;7004;48.206;16.402;2023-09-07T00:55:56;16.93;;;7.70;;
13868;SDS011;7004;48.206;16.402;2023-09-07T00:58:23;12.17;;;7.93;;
13868;SDS011;7004;48.206;16.402;2023-09-07T01:00:49;10.90;;;7.67;;
13868;SDS011;7004;48.206;16.402;2023-09-07T01:03:17;11.97;;;7.67;;
13868;SDS011;7004;48.206;16.402;2023-09-07T01:08:59;12.77;;;8.13;;
13868;SDS011;7004;48.206;16.402;2023-09-07T01:11:35;10.23;;;7.63;;
13868;SDS011;7004;48.206;16.402;2023-09-07T01:14:05;11.83;;;8.07;;
13868;SDS011;7004;48.206;16.402;2023-09-07T01:16:31;8.77;;;7.47;;
13868;SDS011;7004;48.206;16.402;2023-09-07T01:19:04;12.20;;;7.90;;
13868;SDS011;7004;48.206;16.402;2023-09-07T01:21:35;8.93;;;7.50;;
13868;SDS011;7004;48.206;16.402;2023-09-07T01:24:07;11.63;;;7.27;;
13868;SDS011;7004;48.206;16.402;2023-09-07T01:26:36;11.97;;;8.27;;
13868;SDS011;7004;48.206;16.402;2023-09-07T01:29:06;12.40;;;8.17;;
13868;SDS011;7004;48.206;16.402;2023-09-07T01:31:34;11.33;;;8.80;;
13868;SDS011;7004;48.206;16.402;2023-09-07T01:34:04;14.50;;;8.70;;
13868;SDS011;7004;48.206;16.402;2023-09-07T01:36:31;13.77;;;8.20;;
13868;SDS011;7004;48.206;16.402;2023-09-07T01:38:57;14.67;;;8.90;;
13868;SDS011;7004;48.206;16.402;2023-09-07T01:41:23;11.67;;;8.43;;
13868;SDS011;7004;48.206;16.402;2023-09-07T01:43:50;14.83;;;8.90;;
13868;SDS011;7004;48.206;16.402;2023-09-07T01:46:16;9.23;;;8.03;;
13868;SDS011;7004;48.206;16.402;2023-09-07T01:48:44;12.47;;;8.00;;
13868;SDS011;7004;48.206;16.402;2023-09-07T01:51:11;10.43;;;8.53;;
13868;SDS011;7004;48.206;16.402;2023-09-07T01:53:37;13.33;;;8.40;;
13868;SDS011;7004;48.206;16.402;2023-09-07T01:56:03;14.33;;;9.03;;
13868;SDS011;7004;48.206;16.402;2023-09-07T01:58:29;13.87;;;8.70;;
13868;SDS011;7004;48.206;16.402;2023-09-07T02:00:58;15.07;;;9.10;;
13868;SDS011;7004;48.206;16.402;2023-09-07T02:03:25;13.07;;;8.87;;
13868;SDS011;7004;48.206;16.402;2023-09-07T02:05:55;12.07;;;8.93;;
13868;SDS011;7004;48.206;16.402;2023-09-07T02:08:21;17.80;;;8.70;;
13868;SDS011;7004;48.206;16.402;2023-09-07T02:10:47;14.63;;;8.47;;
13868;SDS011;7004;48.206;16.402;2023-09-07T02:13:17;11.40;;;8.83;;
13868;SDS011;7004;48.206;16.402;2023-09-07T02:15:49;11.23;;;9.03;;
13868;SDS011;7004;48.206;16.402;2023-09-07T02:18:17;12.20;;;9.07;;
13868;SDS011;7004;48.206;16.402;2023-09-07T02:20:43;12.30;;;8.27;;
13868;SDS011;7004;48.206;16.402;2023-09-07T02:23:12;14.33;;;8.70;;
13868;SDS011;7004;48.206;16.402;2023-09-07T02:25:40;11.30;;;9.20;;
13868;SDS011;7004;48.206;16.402;2023-09-07T02:28:07;10.50;;;8.90;;
13868;SDS011;7004;48.206;16.402;2023-09-07T02:30:33;12.87;;;8.73;;
13868;SDS011;7004;48.206;16.402;2023-09-07T02:32:59;11.63;;;8.83;;
13868;SDS011;7004;48.206;16.402;2023-09-07T02:35:25;11.87;;;9.50;;
13868;SDS011;7004;48.206;16.402;2023-09-07T02:37:51;10.67;;;8.67;;
13868;SDS011;7004;48.206;16.402;2023-09-07T02:40:18;11.77;;;8.83;;
13868;SDS011;7004;48.206;16.402;2023-09-07T02:42:45;12.07;;;8.00;;
13868;SDS011;7004;48.206;16.402;2023-09-07T02:45:11;12.77;;;8.57;;
13868;SDS011;7004;48.206;16.402;2023-09-07T02:47:38;14.57;;;8.30;;
13868;SDS011;7004;48.206;16.402;2023-09-07T02:50:05;9.20;;;8.30;;
13868;SDS011;7004;48.206;16.402;2023-09-07T02:52:31;12.27;;;8.40;;
13868;SDS011;7004;48.206;16.402;2023-09-07T02:54:58;13.73;;;9.20;;
13868;SDS011;7004;48.206;16.402;2023-09-07T02:57:25;12.20;;;8.70;;
13868;SDS011;7004;48.206;16.402;2023-09-07T02:59:52;11.87;;;8.80;;
13868;SDS011;7004;48.206;16.402;2023-09-07T03:02:19;13.10;;;9.13;;
13868;SDS011;7004;48.206;16.402;2023-09-07T03:04:45;11.83;;;8.33;;
13868;SDS011;7004;48.206;16.402;2023-09-07T03:07:12;12.73;;;8.60;;
13868;SDS011;7004;48.206;16.402;2023-09-07T03:09:39;9.63;;;8.17;;
13868;SDS011;7004;48.206;16.402;2023-09-07T03:12:05;12.90;;;8.73;;
13868;SDS011;7004;48.206;16.402;2023-09-07T03:14:32;13.30;;;8.57;;
13868;SDS011;7004;48.206;16.402;2023-09-07T03:16:59;11.50;;;8.87;;
13868;SDS011;7004;48.206;16.402;2023-09-07T03:19:25;16.73;;;11.63;;
13868;SDS011;7004;48.206;16.402;2023-09-07T03:21:52;20.73;;;14.07;;
13868;SDS011;7004;48.206;16.402;2023-09-07T03:24:21;12.77;;;10.37;;
13868;SDS011;7004;48.206;16.402;2023-09-07T03:26:47;10.93;;;9.53;;
13868;SDS011;7004;48.206;16.402;2023-09-07T03:29:13;13.37;;;10.00;;
13868;SDS011;7004;48.206;16.402;2023-09-07T03:31:40;10.63;;;9.50;;
13868;SDS011;7004;48.206;16.402;2023-09-07T03:34:06;10.60;;;9.43;;
13868;SDS011;7004;48.206;16.402;2023-09-07T03:36:33;13.73;;;9.47;;
13868;SDS011;7004;48.206;16.402;2023-09-07T03:38:59;11.93;;;9.67;;
13868;SDS011;7004;48.206;16.402;2023-09-07T03:41:26;12.93;;;9.87;;
13868;SDS011;7004;48.206;16.402;2023-09-07T03:43:56;13.63;;;10.47;;
13868;SDS011;7004;48.206;16.402;2023-09-07T03:46:23;11.77;;;9.93;;
13868;SDS011;7004;48.206;16.402;2023-09-07T03:48:51;13.83;;;9.97;;
13868;SDS011;7004;48.206;16.402;2023-09-07T03:51:17;14.70;;;10.30;;
13868;SDS011;7004;48.206;16.402;2023-09-07T03:53:43;10.47;;;9.37;;
13868;SDS011;7004;48.206;16.402;2023-09-07T03:56:09;12.03;;;9.80;;
13868;SDS011;7004;48.206;16.402;2023-09-07T03:58:37;14.03;;;10.00;;
13868;SDS011;7004;48.206;16.402;2023-09-07T04:01:04;12.20;;;9.83;;
13868;SDS011;7004;48.206;16.402;2023-09-07T04:03:39;12.83;;;9.70;;
13868;SDS011;7004;48.206;16.402;2023-09-07T04:06:09;11.57;;;9.93;;
13868;SDS011;7004;48.206;16.402;2023-09-07T04:08:38;12.03;;;10.33;;
13868;SDS011;7004;48.206;16.402;2023-09-07T04:11:05;16.20;;;10.10;;
13868;SDS011;7004;48.206;16.402;2023-09-07T04:13:31;10.73;;;9.63;;
13868;SDS011;7004;48.206;16.402;2023-09-07T04:15:58;16.30;;;9.97;;
13868;SDS011;7004;48.206;16.402;2023-09-07T04:18:24;13.77;;;9.97;;
13868;SDS011;7004;48.206;16.402;2023-09-07T04:20:50;15.40;;;10.87;;
13868;SDS011;7004;48.206;16.402;2023-09-07T04:23:16;17.43;;;10.47;;
13868;SDS011;7004;48.206;16.402;2023-09-07T04:25:43;16.80;;;9.93;;
13868;SDS011;7004;48.206;16.402;2023-09-07T04:28:10;14.27;;;9.73;;
13868;SDS011;7004;48.206;16.402;2023-09-07T04:30:38;18.27;;;10.47;;
13868;SDS011;7004;48.206;16.402;2023-09-07T04:33:05;15.53;;;10.37;;
13868;SDS011;7004;48.206;16.402;2023-09-07T04:35:33;10.80;;;9.67;;
13868;SDS011;7004;48.206;16.402;2023-09-07T04:38:01;15.90;;;10.10;;
13868;SDS011;7004;48.206;16.402;2023-09-07T04:40:28;16.53;;;10.70;;
13868;SDS011;7004;48.206;16.402;2023-09-07T04:42:54;14.03;;;10.37;;
13868;SDS011;7004;48.206;16.402;2023-09-07T04:45:20;14.30;;;10.03;;
13868;SDS011;7004;48.206;16.402;2023-09-07T04:47:49;15.53;;;10.07;;
13868;SDS011;7004;48.206;16.402;2023-09-07T04:50:16;17.00;;;10.27;;
13868;SDS011;7004;48.206;16.402;2023-09-07T04:52:43;12.83;;;9.47;;
13868;SDS011;7004;48.206;16.402;2023-09-07T04:55:10;16.33;;;10.97;;
13868;SDS011;7004;48.206;16.402;2023-09-07T04:57:36;14.67;;;10.53;;
13868;SDS011;7004;48.206;16.402;2023-09-07T05:00:05;13.37;;;9.73;;
13868;SDS011;7004;48.206;16.402;2023-09-07T05:02:34;19.10;;;10.00;;
13868;SDS011;7004;48.206;16.402;2023-09-07T05:05:05;19.00;;;10.07;;
13868;SDS011;7004;48.206;16.402;2023-09-07T05:07:32;14.87;;;10.23;;
13868;SDS011;7004;48.206;16.402;2023-09-07T05:09:59;16.47;;;10.17;;
13868;SDS011;7004;48.206;16.402;2023-09-07T05:12:25;16.13;;;10.23;;
13868;SDS011;7004;48.206;16.402;2023-09-07T05:14:51;14.03;;;9.97;;
13868;SDS011;7004;48.206;16.402;2023-09-07T05:17:18;14.97;;;9.80;;
13868;SDS011;7004;48.206;16.402;2023-09-07T05:19:44;11.93;;;10.30;;
13868;SDS011;7004;48.206;16.402;2023-09-07T05:22:10;14.63;;;10.50;;
13868;SDS011;7004;48.206;16.402;2023-09-07T05:24:39;19.43;;;10.37;;
13868;SDS011;7004;48.206;16.402;2023-09-07T05:27:06;17.87;;;10.30;;
13868;SDS011;7004;48.206;16.402;2023-09-07T05:29:33;15.47;;;9.50;;
13868;SDS011;7004;48.206;16.402;2023-09-07T05:31:59;15.07;;;10.73;;
13868;SDS011;7004;48.206;16.402;2023-09-07T05:34:26;16.97;;;10.23;;
13868;SDS011;7004;48.206;16.402;2023-09-07T05:36:52;15.90;;;10.57;;
13868;SDS011;7004;48.206;16.402;2023-09-07T05:39:18;17.37;;;10.23;;
13868;SDS011;7004;48.206;16.402;2023-09-07T05:41:45;18.90;;;10.67;;
13868;SDS011;7004;48.206;16.402;2023-09-07T05:44:11;16.90;;;9.50;;
13868;SDS011;7004;48.206;16.402;2023-09-07T05:46:37;17.40;;;10.00;;
13868;SDS011;7004;48.206;16.402;2023-09-07T05:49:03;13.80;;;9.80;;
13868;SDS011;7004;48.206;16.402;2023-09-07T05:51:29;16.50;;;9.10;;
13868;SDS011;7004;48.206;16.402;2023-09-07T05:53:55;17.13;;;9.90;;
13868;SDS011;7004;48.206;16.402;2023-09-07T05:56:23;14.10;;;9.33;;
13868;SDS011;7004;48.206;16.402;2023-09-07T05:58:49;11.33;;;9.27;;
13868;SDS011;7004;48.206;16.402;2023-09-07T06:01:15;22.53;;;10.13;;
13868;SDS011;7004;48.206;16.402;2023-09-07T06:03:41;17.33;;;10.20;;
13868;SDS011;7004;48.206;16.402;2023-09-07T06:06:07;11.90;;;9.30;;
13868;SDS011;7004;48.206;16.402;2023-09-07T06:08:33;18.90;;;9.73;;
13868;SDS011;7004;48.206;16.402;2023-09-07T06:10:59;11.13;;;8.43;;
13868;SDS011;7004;48.206;16.402;2023-09-07T06:13:25;10.73;;;7.60;;
13868;SDS011;7004;48.206;16.402;2023-09-07T06:15:51;10.83;;;8.33;;
13868;SDS011;7004;48.206;16.402;2023-09-07T06:18:17;14.43;;;8.23;;
13868;SDS011;7004;48.206;16.402;2023-09-07T06:20:43;11.67;;;8.47;;
13868;SDS011;7004;48.206;16.402;2023-09-07T06:23:10;14.53;;;9.30;;
13868;SDS011;7004;48.206;16.402;2023-09-07T06:25:36;10.50;;;8.60;;
13868;SDS011;7004;48.206;16.402;2023-09-07T06:28:02;11.63;;;8.60;;
13868;SDS011;7004;48.206;16.402;2023-09-07T06:30:28;12.57;;;7.97;;
13868;SDS011;7004;48.206;16.402;2023-09-07T06:32:55;12.07;;;8.00;;
13868;SDS011;7004;48.206;16.402;2023-09-07T06:35:22;14.30;;;8.47;;
13868;SDS011;7004;48.206;16.402;2023-09-07T06:37:49;10.77;;;7.77;;
13868;SDS011;7004;48.206;16.402;2023-09-07T06:40:15;10.43;;;8.20;;
13868;SDS011;7004;48.206;16.402;2023-09-07T06:42:43;10.07;;;8.33;;
13868;SDS011;7004;48.206;16.402;2023-09-07T06:45:10;11.40;;;8.20;;
13868;SDS011;7004;48.206;16.402;2023-09-07T06:47:36;8.70;;;7.30;;
13868;SDS011;7004;48.206;16.402;2023-09-07T06:50:02;8.70;;;7.17;;
13868;SDS011;7004;48.206;16.402;2023-09-07T06:52:30;9.70;;;7.90;;
13868;SDS011;7004;48.206;16.402;2023-09-07T06:54:57;12.43;;;7.93;;
13868;SDS011;7004;48.206;16.402;2023-09-07T06:57:23;9.30;;;7.80;;
13868;SDS011;7004;48.206;16.402;2023-09-07T06:59:49;19.03;;;10.80;;
13868;SDS011;7004;48.206;16.402;2023-09-07T07:02:15;38.77;;;14.73;;
13868;SDS011;7004;48.206;16.402;2023-09-07T07:04:41;34.03;;;14.73;;
13868;SDS011;7004;48.206;16.402;2023-09-07T07:07:09;12.97;;;9.10;;
13868;SDS011;7004;48.206;16.402;2023-09-07T07:09:36;16.33;;;9.43;;
13868;SDS011;7004;48.206;16.402;2023-09-07T07:12:02;10.63;;;8.27;;
13868;SDS011;7004;48.206;16.402;2023-09-07T07:14:29;12.63;;;9.27;;
13868;SDS011;7004;48.206;16.402;2023-09-07T07:16:55;17.30;;;9.90;;
13868;SDS011;7004;48.206;16.402;2023-09-07T07:19:21;18.23;;;9.17;;
13868;SDS011;7004;48.206;16.402;2023-09-07T07:21:48;13.77;;;9.60;;
13868;SDS011;7004;48.206;16.402;2023-09-07T07:24:14;14.17;;;9.07;;
13868;SDS011;7004;48.206;16.402;2023-09-07T07:26:40;13.53;;;9.47;;
13868;SDS011;7004;48.206;16.402;2023-09-07T07:29:06;16.03;;;9.77;;
13868;SDS011;7004;48.206;16.402;2023-09-07T07:31:32;12.50;;;8.87;;
13868;SDS011;7004;48.206;16.402;2023-09-07T07:33:58;17.40;;;9.67;;
13868;SDS011;7004;48.206;16.402;2023-09-07T07:36:24;41.30;;;15.73;;
13868;SDS011;7004;48.206;16.402;2023-09-07T07:38:51;26.43;;;12.67;;
13868;SDS011;7004;48.206;16.402;2023-09-07T07:41:17;23.17;;;11.50;;
13868;SDS011;7004;48.206;16.402;2023-09-07T07:43:43;13.93;;;10.07;;
13868;SDS011;7004;48.206;16.402;2023-09-07T07:46:09;16.93;;;10.20;;
13868;SDS011;7004;48.206;16.402;2023-09-07T07:48:35;12.13;;;9.30;;
13868;SDS011;7004;48.206;16.402;2023-09-07T07:51:05;11.47;;;9.70;;
13868;SDS011;7004;48.206;16.402;2023-09-07T07:53:31;15.83;;;9.17;;
13868;SDS011;7004;48.206;16.402;2023-09-07T07:55:59;14.97;;;9.83;;
13868;SDS011;7004;48.206;16.402;2023-09-07T07:58:26;31.77;;;12.93;;
13868;SDS011;7004;48.206;16.402;2023-09-07T08:00:52;41.43;;;14.93;;
13868;SDS011;7004;48.206;16.402;2023-09-07T08:03:19;28.17;;;13.47;;
13868;SDS011;7004;48.206;16.402;2023-09-07T08:05:45;28.50;;;10.40;;
13868;SDS011;7004;48.206;16.402;2023-09-07T08:08:12;13.67;;;9.33;;
13868;SDS011;7004;48.206;16.402;2023-09-07T08:10:38;35.90;;;13.57;;
13868;SDS011;7004;48.206;16.402;2023-09-07T08:13:06;13.10;;;9.30;;
13868;SDS011;7004;48.206;16.402;2023-09-07T08:15:33;34.50;;;14.20;;
13868;SDS011;7004;48.206;16.402;2023-09-07T08:17:59;25.57;;;12.77;;
13868;SDS011;7004;48.206;16.402;2023-09-07T08:20:26;14.73;;;9.00;;
13868;SDS011;7004;48.206;16.402;2023-09-07T08:22:52;15.63;;;8.97;;
13868;SDS011;7004;48.206;16.402;2023-09-07T08:25:19;20.73;;;10.20;;
13868;SDS011;7004;48.206;16.402;2023-09-07T08:27:45;13.47;;;9.63;;
13868;SDS011;7004;48.206;16.402;2023-09-07T08:30:13;8.77;;;7.60;;
13868;SDS011;7004;48.206;16.402;2023-09-07T08:32:42;41.40;;;15.93;;
13868;SDS011;7004;48.206;16.402;2023-09-07T08:35:10;31.20;;;14.30;;
13868;SDS011;7004;48.206;16.402;2023-09-07T08:37:39;24.37;;;13.03;;
13868;SDS011;7004;48.206;16.402;2023-09-07T08:40:05;59.43;;;21.70;;
13868;SDS011;7004;48.206;16.402;2023-09-07T08:42:34;27.70;;;11.57;;
13868;SDS011;7004;48.206;16.402;2023-09-07T08:45:04;19.33;;;8.97;;
13868;SDS011;7004;48.206;16.402;2023-09-07T08:47:34;17.67;;;9.10;;
13868;SDS011;7004;48.206;16.402;2023-09-07T08:50:04;19.47;;;11.43;;
13868;SDS011;7004;48.206;16.402;2023-09-07T08:52:33;19.37;;;10.73;;
13868;SDS011;7004;48.206;16.402;2023-09-07T08:55:00;18.73;;;10.13;;
13868;SDS011;7004;48.206;16.402;2023-09-07T08:57:30;13.53;;;9.87;;
13868;SDS011;7004;48.206;16.402;2023-09-07T08:59:57;11.43;;;8.40;;
13868;SDS011;7004;48.206;16.402;2023-09-07T09:02:24;23.30;;;11.93;;
13868;SDS011;7004;48.206;16.402;2023-09-07T09:04:50;31.70;;;13.00;;
13868;SDS011;7004;48.206;16.402;2023-09-07T09:07:18;15.47;;;8.37;;
13868;SDS011;7004;48.206;16.402;2023-09-07T09:09:43;11.83;;;8.20;;
13868;SDS011;7004;48.206;16.402;2023-09-07T09:12:10;9.63;;;7.90;;
13868;SDS011;7004;48.206;16.402;2023-09-07T09:14:43;9.27;;;7.70;;
13868;SDS011;7004;48.206;16.402;2023-09-07T09:17:14;8.73;;;6.87;;
13868;SDS011;7004;48.206;16.402;2023-09-07T09:19:41;16.63;;;8.97;;
13868;SDS011;7004;48.206;16.402;2023-09-07T09:22:07;8.10;;;7.30;;
13868;SDS011;7004;48.206;16.402;2023-09-07T09:24:35;21.37;;;11.00;;
13868;SDS011;7004;48.206;16.402;2023-09-07T09:27:03;19.77;;;7.77;;
13868;SDS011;7004;48.206;16.402;2023-09-07T09:29:32;10.93;;;7.63;;
13868;SDS011;7004;48.206;16.402;2023-09-07T09:32:06;8.93;;;7.53;;
13868;SDS011;7004;48.206;16.402;2023-09-07T09:34:33;10.67;;;6.90;;
13868;SDS011;7004;48.206;16.402;2023-09-07T09:37:01;18.43;;;10.00;;
13868;SDS011;7004;48.206;16.402;2023-09-07T09:39:31;18.37;;;8.30;;
13868;SDS011;7004;48.206;16.402;2023-09-07T09:41:58;5.73;;;5.23;;
13868;SDS011;7004;48.206;16.402;2023-09-07T09:44:25;6.37;;;5.70;;
13868;SDS011;7004;48.206;16.402;2023-09-07T09:46:53;7.57;;;5.53;;
13868;SDS011;7004;48.206;16.402;2023-09-07T09:49:22;9.03;;;5.23;;
13868;SDS011;7004;48.206;16.402;2023-09-07T09:51:49;8.33;;;5.77;;
13868;SDS011;7004;48.206;16.402;2023-09-07T09:54:18;10.13;;;5.53;;
13868;SDS011;7004;48.206;16.402;2023-09-07T09:56:46;7.10;;;5.23;;
13868;SDS011;7004;48.206;16.402;2023-09-07T09:59:16;6.93;;;5.20;;
13868;SDS011;7004;48.206;16.402;2023-09-07T10:01:46;5.80;;;5.00;;
13868;SDS011;7004;48.206;16.402;2023-09-07T10:04:17;7.13;;;4.67;;
13868;SDS011;7004;48.206;16.402;2023-09-07T10:06:53;9.83;;;4.90;;
13868;SDS011;7004;48.206;16.402;2023-09-07T10:09:33;9.07;;;4.50;;
13868;SDS011;7004;48.206;16.402;2023-09-07T10:12:02;5.93;;;4.40;;
13868;SDS011;7004;48.206;16.402;2023-09-07T10:14:39;5.73;;;4.87;;
13868;SDS011;7004;48.206;16.402;2023-09-07T10:17:08;4.53;;;4.13;;
13868;SDS011;7004;48.206;16.402;2023-09-07T10:19:35;6.10;;;4.40;;
13868;SDS011;7004;48.206;16.402;2023-09-07T10:22:03;4.50;;;4.10;;
13868;SDS011;7004;48.206;16.402;2023-09-07T10:24:30;5.20;;;4.37;;
13868;SDS011;7004;48.206;16.402;2023-09-07T10:29:41;4.53;;;4.13;;
13868;SDS011;7004;48.206;16.402;2023-09-07T10:32:13;9.97;;;4.43;;
13868;SDS011;7004;48.206;16.402;2023-09-07T10:34:40;6.57;;;4.17;;
13868;SDS011;7004;48.206;16.402;2023-09-07T10:37:13;7.53;;;4.27;;
13868;SDS011;7004;48.206;16.402;2023-09-07T10:39:40;4.10;;;3.70;;
13868;SDS011;7004;48.206;16.402;2023-09-07T10:42:23;4.50;;;4.00;;
13868;SDS011;7004;48.206;16.402;2023-09-07T10:44:50;4.37;;;3.97;;
13868;SDS011;7004;48.206;16.402;2023-09-07T10:47:16;6.80;;;3.63;;
13868;SDS011;7004;48.206;16.402;2023-09-07T10:49:43;4.20;;;3.80;;
13868;SDS011;7004;48.206;16.402;2023-09-07T10:52:09;5.07;;;3.63;;
13868;SDS011;7004;48.206;16.402;2023-09-07T10:54:35;5.60;;;3.97;;
13868;SDS011;7004;48.206;16.402;2023-09-07T10:57:11;4.27;;;3.67;;
13868;SDS011;7004;48.206;16.402;2023-09-07T10:59:44;4.23;;;3.83;;
13868;SDS011;7004;48.206;16.402;2023-09-07T11:02:11;7.37;;;4.10;;
13868;SDS011;7004;48.206;16.402;2023-09-07T11:04:37;6.60;;;3.87;;
13868;SDS011;7004;48.206;16.402;2023-09-07T11:07:03;4.67;;;4.20;;
13868;SDS011;7004;48.206;16.402;2023-09-07T11:09:30;6.70;;;3.90;;
13868;SDS011;7004;48.206;16.402;2023-09-07T11:11:56;4.20;;;3.77;;
13868;SDS011;7004;48.206;16.402;2023-09-07T11:14:29;4.10;;;3.70;;
13868;SDS011;7004;48.206;16.402;2023-09-07T11:16:56;4.13;;;3.73;;
13868;SDS011;7004;48.206;16.402;2023-09-07T11:19:22;5.50;;;4.00;;
13868;SDS011;7004;48.206;16.402;2023-09-07T11:21:48;5.33;;;3.63;;
13868;SDS011;7004;48.206;16.402;2023-09-07T11:24:16;7.87;;;3.87;;
13868;SDS011;7004;48.206;16.402;2023-09-07T11:26:43;8.07;;;4.37;;
13868;SDS011;7004;48.206;16.402;2023-09-07T11:29:13;7.97;;;4.67;;
13868;SDS011;7004;48.206;16.402;2023-09-07T11:31:44;8.47;;;4.93;;
13868;SDS011;7004;48.206;16.402;2023-09-07T11:34:10;7.60;;;6.37;;
13868;SDS011;7004;48.206;16.402;2023-09-07T11:36:41;7.43;;;4.27;;
13868;SDS011;7004;48.206;16.402;2023-09-07T11:39:09;22.07;;;8.53;;
13868;SDS011;7004;48.206;16.402;2023-09-07T11:41:39;10.53;;;5.90;;
13868;SDS011;7004;48.206;16.402;2023-09-07T11:44:10;10.33;;;4.70;;
13868;SDS011;7004;48.206;16.402;2023-09-07T11:46:36;8.73;;;4.13;;
13868;SDS011;7004;48.206;16.402;2023-09-07T11:49:03;6.55;;;3.42;;
13868;SDS011;7004;48.206;16.402;2023-09-07T11:51:34;4.37;;;3.70;;
13868;SDS011;7004;48.206;16.402;2023-09-07T11:54:03;4.85;;;3.90;;
13868;SDS011;7004;48.206;16.402;2023-09-07T11:56:29;4.63;;;3.90;;
13868;SDS011;7004;48.206;16.402;2023-09-07T11:58:56;5.63;;;4.03;;
13868;SDS011;7004;48.206;16.402;2023-09-07T12:01:23;6.90;;;4.03;;
13868;SDS011;7004;48.206;16.402;2023-09-07T12:03:49;4.78;;;4.22;;
13868;SDS011;7004;48.206;16.402;2023-09-07T12:06:15;5.60;;;4.10;;
13868;SDS011;7004;48.206;16.402;2023-09-07T12:08:42;4.30;;;3.90;;
13868;SDS011;7004;48.206;16.402;2023-09-07T12:11:23;4.27;;;3.87;;
13868;SDS011;7004;48.206;16.402;2023-09-07T12:13:49;6.93;;;4.27;;
13868;SDS011;7004;48.206;16.402;2023-09-07T12:16:15;5.73;;;3.77;;
13868;SDS011;7004;48.206;16.402;2023-09-07T12:18:41;4.90;;;3.73;;
13868;SDS011;7004;48.206;16.402;2023-09-07T12:21:07;5.67;;;3.90;;
13868;SDS011;7004;48.206;16.402;2023-09-07T12:23:33;5.53;;;4.20;;
13868;SDS011;7004;48.206;16.402;2023-09-07T12:26:00;5.30;;;4.07;;
13868;SDS011;7004;48.206;16.402;2023-09-07T12:28:29;7.57;;;4.70;;
13868;SDS011;7004;48.206;16.402;2023-09-07T12:30:57;4.20;;;3.80;;
13868;SDS011;7004;48.206;16.402;2023-09-07T12:33:24;7.38;;;4.65;;
13868;SDS011;7004;48.206;16.402;2023-09-07T12:35:51;4.47;;;3.93;;
13868;SDS011;7004;48.206;16.402;2023-09-07T12:38:17;6.43;;;4.00;;
13868;SDS011;7004;48.206;16.402;2023-09-07T12:40:48;12.48;;;5.85;;
13868;SDS011;7004;48.206;16.402;2023-09-07T12:43:15;4.67;;;4.10;;
13868;SDS011;7004;48.206;16.402;2023-09-07T12:45:41;5.10;;;4.60;;
13868;SDS011;7004;48.206;16.402;2023-09-07T12:48:07;4.87;;;4.10;;
13868;SDS011;7004;48.206;16.402;2023-09-07T12:50:35;4.75;;;4.22;;
13868;SDS011;7004;48.206;16.402;2023-09-07T12:53:01;9.00;;;4.73;;
13868;SDS011;7004;48.206;16.402;2023-09-07T12:55:27;8.33;;;4.90;;
13868;SDS011;7004;48.206;16.402;2023-09-07T12:57:55;7.33;;;4.63;;
13868;SDS011;7004;48.206;16.402;2023-09-07T13:00:22;11.52;;;6.25;;
13868;SDS011;7004;48.206;16.402;2023-09-07T13:02:48;10.23;;;5.00;;
13868;SDS011;7004;48.206;16.402;2023-09-07T13:05:14;8.60;;;4.67;;
13868;SDS011;7004;48.206;16.402;2023-09-07T13:07:40;4.77;;;4.27;;
13868;SDS011;7004;48.206;16.402;2023-09-07T13:10:09;8.83;;;4.40;;
13868;SDS011;7004;48.206;16.402;2023-09-07T13:12:36;6.10;;;4.30;;
13868;SDS011;7004;48.206;16.402;2023-09-07T13:15:03;9.17;;;4.73;;
13868;SDS011;7004;48.206;16.402;2023-09-07T13:17:30;4.65;;;4.20;;
13868;SDS011;7004;48.206;16.402;2023-09-07T13:19:57;5.53;;;4.05;;
13868;SDS011;7004;48.206;16.402;2023-09-07T13:22:24;5.10;;;4.43;;
13868;SDS011;7004;48.206;16.402;2023-09-07T13:24:50;7.63;;;3.90;;
13868;SDS011;7004;48.206;16.402;2023-09-07T13:27:16;4.93;;;4.33;;
13868;SDS011;7004;48.206;16.402;2023-09-07T13:29:42;6.13;;;3.83;;
13868;SDS011;7004;48.206;16.402;2023-09-07T13:32:08;5.80;;;3.67;;
13868;SDS011;7004;48.206;16.402;2023-09-07T13:34:34;6.53;;;4.83;;
13868;SDS011;7004;48.206;16.402;2023-09-07T13:37:00;4.93;;;4.37;;
13868;SDS011;7004;48.206;16.402;2023-09-07T13:39:27;9.83;;;4.13;;
13868;SDS011;7004;48.206;16.402;2023-09-07T13:41:53;5.80;;;4.43;;
13868;SDS011;7004;48.206;16.402;2023-09-07T13:44:19;5.70;;;4.30;;
13868;SDS011;7004;48.206;16.402;2023-09-07T13:46:45;5.37;;;3.93;;
13868;SDS011;7004;48.206;16.402;2023-09-07T13:49:12;6.67;;;4.27;;
13868;SDS011;7004;48.206;16.402;2023-09-07T13:51:42;5.37;;;3.83;;
13868;SDS011;7004;48.206;16.402;2023-09-07T13:54:09;8.70;;;4.30;;
13868;SDS011;7004;48.206;16.402;2023-09-07T13:56:35;6.23;;;4.60;;
13868;SDS011;7004;48.206;16.402;2023-09-07T13:59:02;4.53;;;4.03;;
13868;SDS011;7004;48.206;16.402;2023-09-07T14:01:28;6.20;;;4.30;;
13868;SDS011;7004;48.206;16.402;2023-09-07T14:03:55;8.10;;;4.10;;
13868;SDS011;7004;48.206;16.402;2023-09-07T14:06:21;5.23;;;3.83;;
13868;SDS011;7004;48.206;16.402;2023-09-07T14:08:50;5.13;;;4.23;;
13868;SDS011;7004;48.206;16.402;2023-09-07T14:11:16;9.27;;;4.93;;
13868;SDS011;7004;48.206;16.402;2023-09-07T14:13:43;4.93;;;4.33;;
13868;SDS011;7004;48.206;16.402;2023-09-07T14:16:09;4.90;;;4.40;;
13868;SDS011;7004;48.206;16.402;2023-09-07T14:18:36;5.80;;;3.83;;
13868;SDS011;7004;48.206;16.402;2023-09-07T14:21:02;7.93;;;4.13;;
13868;SDS011;7004;48.206;16.402;2023-09-07T14:23:29;5.97;;;4.20;;
13868;SDS011;7004;48.206;16.402;2023-09-07T14:25:55;7.27;;;4.40;;
13868;SDS011;7004;48.206;16.402;2023-09-07T14:28:21;4.40;;;4.00;;
13868;SDS011;7004;48.206;16.402;2023-09-07T14:30:47;4.60;;;4.07;;
13868;SDS011;7004;48.206;16.402;2023-09-07T14:33:14;6.50;;;4.20;;
13868;SDS011;7004;48.206;16.402;2023-09-07T14:35:40;6.23;;;4.17;;
13868;SDS011;7004;48.206;16.402;2023-09-07T14:38:06;4.87;;;4.30;;
13868;SDS011;7004;48.206;16.402;2023-09-07T14:40:32;4.87;;;3.90;;
13868;SDS011;7004;48.206;16.402;2023-09-07T14:42:58;6.00;;;4.23;;
13868;SDS011;7004;48.206;16.402;2023-09-07T14:45:24;4.73;;;4.20;;